sensor_id;sensor_type;location;lat;lon;timestamp;P1;durP1;ratioP1;P2;durP2;ratioP2
56043;SDS011;41912;51.022;3.664;2023-08-07T00:00:05;11.95;;;2.70;;
56043;SDS011;41912;51.022;3.664;2023-08-07T00:02:34;10.80;;;2.15;;
56043;SDS011;41912;51.022;3.664;2023-08-07T00:05:00;7.57;;;2.35;;
56043;SDS011;41912;51.022;3.664;2023-08-07T00:07:25;11.38;;;2.58;;
56043;SDS011;41912;51.022;3.664;2023-08-07T00:09:51;6.68;;;2.95;;
56043;SDS011;41912;51.022;3.664;2023-08-07T00:12:16;9.25;;;2.47;;
56043;SDS011;41912;51.022;3.664;2023-08-07T00:14:42;9.35;;;2.22;;
56043;SDS011;41912;51.022;3.664;2023-08-07T00:17:08;9.05;;;2.28;;
56043;SDS011;41912;51.022;3.664;2023-08-07T00:19:33;8.05;;;2.40;;
56043;SDS011;41912;51.022;3.664;2023-08-07T00:21:59;7.25;;;2.33;;
56043;SDS011;41912;51.022;3.664;2023-08-07T00:24:24;7.10;;;2.20;;
56043;SDS011;41912;51.022;3.664;2023-08-07T00:26:50;6.63;;;1.83;;
56043;SDS011;41912;51.022;3.664;2023-08-07T00:29:16;4.53;;;1.90;;
56043;SDS011;41912;51.022;3.664;2023-08-07T00:31:44;11.10;;;2.58;;
56043;SDS011;41912;51.022;3.664;2023-08-07T00:34:10;6.03;;;2.47;;
56043;SDS011;41912;51.022;3.664;2023-08-07T00:36:36;9.35;;;2.28;;
56043;SDS011;41912;51.022;3.664;2023-08-07T00:39:02;6.85;;;2.60;;
56043;SDS011;41912;51.022;3.664;2023-08-07T00:41:30;8.57;;;2.75;;
56043;SDS011;41912;51.022;3.664;2023-08-07T00:43:56;12.25;;;2.20;;
56043;SDS011;41912;51.022;3.664;2023-08-07T00:46:22;7.60;;;2.20;;
56043;SDS011;41912;51.022;3.664;2023-08-07T00:48:47;8.30;;;3.08;;
56043;SDS011;41912;51.022;3.664;2023-08-07T00:51:13;7.53;;;2.63;;
56043;SDS011;41912;51.022;3.664;2023-08-07T00:53:39;12.52;;;3.13;;
56043;SDS011;41912;51.022;3.664;2023-08-07T00:56:05;3.40;;;1.88;;
56043;SDS011;41912;51.022;3.664;2023-08-07T00:58:32;8.10;;;2.00;;
56043;SDS011;41912;51.022;3.664;2023-08-07T01:00:58;5.75;;;2.20;;
56043;SDS011;41912;51.022;3.664;2023-08-07T01:03:24;6.05;;;2.10;;
56043;SDS011;41912;51.022;3.664;2023-08-07T01:05:50;8.02;;;2.47;;
56043;SDS011;41912;51.022;3.664;2023-08-07T01:08:15;11.68;;;2.88;;
56043;SDS011;41912;51.022;3.664;2023-08-07T01:10:51;7.22;;;2.00;;
56043;SDS011;41912;51.022;3.664;2023-08-07T01:13:35;7.60;;;2.17;;
56043;SDS011;41912;51.022;3.664;2023-08-07T01:16:13;8.70;;;1.90;;
56043;SDS011;41912;51.022;3.664;2023-08-07T01:18:41;7.03;;;2.50;;
56043;SDS011;41912;51.022;3.664;2023-08-07T01:21:16;5.72;;;2.05;;
56043;SDS011;41912;51.022;3.664;2023-08-07T01:23:43;7.53;;;2.13;;
56043;SDS011;41912;51.022;3.664;2023-08-07T01:26:11;6.75;;;1.60;;
56043;SDS011;41912;51.022;3.664;2023-08-07T01:28:37;3.70;;;1.67;;
56043;SDS011;41912;51.022;3.664;2023-08-07T01:31:08;3.92;;;1.92;;
56043;SDS011;41912;51.022;3.664;2023-08-07T01:36:15;8.88;;;2.35;;
56043;SDS011;41912;51.022;3.664;2023-08-07T01:38:42;6.18;;;2.03;;
56043;SDS011;41912;51.022;3.664;2023-08-07T01:41:08;6.43;;;2.10;;
56043;SDS011;41912;51.022;3.664;2023-08-07T01:43:34;7.85;;;2.10;;
56043;SDS011;41912;51.022;3.664;2023-08-07T01:46:01;3.70;;;1.85;;
56043;SDS011;41912;51.022;3.664;2023-08-07T01:48:27;5.18;;;2.05;;
56043;SDS011;41912;51.022;3.664;2023-08-07T01:50:53;8.25;;;1.90;;
56043;SDS011;41912;51.022;3.664;2023-08-07T01:53:19;15.60;;;1.80;;
56043;SDS011;41912;51.022;3.664;2023-08-07T01:55:45;9.88;;;2.20;;
56043;SDS011;41912;51.022;3.664;2023-08-07T01:58:11;8.07;;;1.98;;
56043;SDS011;41912;51.022;3.664;2023-08-07T02:00:37;5.47;;;1.92;;
56043;SDS011;41912;51.022;3.664;2023-08-07T02:03:03;5.00;;;2.25;;
56043;SDS011;41912;51.022;3.664;2023-08-07T02:05:28;3.63;;;1.90;;
56043;SDS011;41912;51.022;3.664;2023-08-07T02:07:54;5.95;;;1.90;;
56043;SDS011;41912;51.022;3.664;2023-08-07T02:10:21;4.60;;;2.10;;
56043;SDS011;41912;51.022;3.664;2023-08-07T02:12:47;5.13;;;1.70;;
56043;SDS011;41912;51.022;3.664;2023-08-07T02:15:13;6.28;;;2.00;;
56043;SDS011;41912;51.022;3.664;2023-08-07T02:17:39;5.47;;;1.98;;
56043;SDS011;41912;51.022;3.664;2023-08-07T02:20:06;13.20;;;2.28;;
56043;SDS011;41912;51.022;3.664;2023-08-07T02:22:32;8.65;;;2.10;;
56043;SDS011;41912;51.022;3.664;2023-08-07T02:24:58;6.07;;;1.80;;
56043;SDS011;41912;51.022;3.664;2023-08-07T02:27:23;7.43;;;2.70;;
56043;SDS011;41912;51.022;3.664;2023-08-07T02:29:49;5.82;;;2.03;;
56043;SDS011;41912;51.022;3.664;2023-08-07T02:32:16;8.40;;;2.30;;
56043;SDS011;41912;51.022;3.664;2023-08-07T02:34:41;9.75;;;2.17;;
56043;SDS011;41912;51.022;3.664;2023-08-07T02:37:07;5.53;;;2.10;;
56043;SDS011;41912;51.022;3.664;2023-08-07T02:39:33;5.30;;;1.83;;
56043;SDS011;41912;51.022;3.664;2023-08-07T02:41:58;6.10;;;2.40;;
56043;SDS011;41912;51.022;3.664;2023-08-07T02:44:24;7.28;;;1.92;;
56043;SDS011;41912;51.022;3.664;2023-08-07T02:46:50;4.80;;;2.13;;
56043;SDS011;41912;51.022;3.664;2023-08-07T02:49:15;11.00;;;2.20;;
56043;SDS011;41912;51.022;3.664;2023-08-07T02:51:41;6.28;;;2.10;;
56043;SDS011;41912;51.022;3.664;2023-08-07T02:54:07;7.93;;;2.40;;
56043;SDS011;41912;51.022;3.664;2023-08-07T02:56:32;14.60;;;3.25;;
56043;SDS011;41912;51.022;3.664;2023-08-07T02:58:58;9.30;;;1.80;;
56043;SDS011;41912;51.022;3.664;2023-08-07T03:01:26;4.60;;;1.83;;
56043;SDS011;41912;51.022;3.664;2023-08-07T03:03:52;6.43;;;1.75;;
56043;SDS011;41912;51.022;3.664;2023-08-07T03:06:18;7.95;;;2.17;;
56043;SDS011;41912;51.022;3.664;2023-08-07T03:08:44;9.10;;;2.53;;
56043;SDS011;41912;51.022;3.664;2023-08-07T03:11:09;6.97;;;2.40;;
56043;SDS011;41912;51.022;3.664;2023-08-07T03:13:35;11.32;;;2.08;;
56043;SDS011;41912;51.022;3.664;2023-08-07T03:16:01;5.70;;;1.95;;
56043;SDS011;41912;51.022;3.664;2023-08-07T03:18:28;8.02;;;2.25;;
56043;SDS011;41912;51.022;3.664;2023-08-07T03:20:55;7.00;;;2.08;;
56043;SDS011;41912;51.022;3.664;2023-08-07T03:23:21;9.20;;;2.53;;
56043;SDS011;41912;51.022;3.664;2023-08-07T03:25:47;5.70;;;1.98;;
56043;SDS011;41912;51.022;3.664;2023-08-07T03:28:13;6.43;;;1.90;;
56043;SDS011;41912;51.022;3.664;2023-08-07T03:30:39;7.07;;;2.10;;
56043;SDS011;41912;51.022;3.664;2023-08-07T03:33:05;4.50;;;2.00;;
56043;SDS011;41912;51.022;3.664;2023-08-07T03:35:32;9.65;;;2.30;;
56043;SDS011;41912;51.022;3.664;2023-08-07T03:37:57;4.32;;;2.30;;
56043;SDS011;41912;51.022;3.664;2023-08-07T03:40:23;9.55;;;2.42;;
56043;SDS011;41912;51.022;3.664;2023-08-07T03:42:49;5.85;;;2.05;;
56043;SDS011;41912;51.022;3.664;2023-08-07T03:45:14;8.43;;;1.98;;
56043;SDS011;41912;51.022;3.664;2023-08-07T03:47:40;8.77;;;2.08;;
56043;SDS011;41912;51.022;3.664;2023-08-07T03:50:05;7.45;;;2.75;;
56043;SDS011;41912;51.022;3.664;2023-08-07T03:52:31;4.60;;;1.88;;
56043;SDS011;41912;51.022;3.664;2023-08-07T03:54:57;5.47;;;2.00;;
56043;SDS011;41912;51.022;3.664;2023-08-07T03:57:23;6.53;;;2.20;;
56043;SDS011;41912;51.022;3.664;2023-08-07T03:59:49;4.82;;;2.50;;
56043;SDS011;41912;51.022;3.664;2023-08-07T04:02:14;12.23;;;1.95;;
56043;SDS011;41912;51.022;3.664;2023-08-07T04:04:40;4.65;;;2.50;;
56043;SDS011;41912;51.022;3.664;2023-08-07T04:07:06;8.02;;;2.50;;
56043;SDS011;41912;51.022;3.664;2023-08-07T04:09:32;4.65;;;2.30;;
56043;SDS011;41912;51.022;3.664;2023-08-07T04:11:58;4.63;;;2.42;;
56043;SDS011;41912;51.022;3.664;2023-08-07T04:14:24;6.03;;;2.38;;
56043;SDS011;41912;51.022;3.664;2023-08-07T04:16:49;7.05;;;1.90;;
56043;SDS011;41912;51.022;3.664;2023-08-07T04:19:15;3.67;;;2.05;;
56043;SDS011;41912;51.022;3.664;2023-08-07T04:21:41;9.07;;;2.10;;
56043;SDS011;41912;51.022;3.664;2023-08-07T04:24:07;10.98;;;2.90;;
56043;SDS011;41912;51.022;3.664;2023-08-07T04:26:36;8.18;;;2.53;;
56043;SDS011;41912;51.022;3.664;2023-08-07T04:29:03;11.63;;;2.60;;
56043;SDS011;41912;51.022;3.664;2023-08-07T04:31:29;5.85;;;2.08;;
56043;SDS011;41912;51.022;3.664;2023-08-07T04:33:58;6.47;;;2.42;;
56043;SDS011;41912;51.022;3.664;2023-08-07T04:36:24;11.07;;;2.72;;
56043;SDS011;41912;51.022;3.664;2023-08-07T04:38:50;5.13;;;2.10;;
56043;SDS011;41912;51.022;3.664;2023-08-07T04:41:16;9.45;;;2.55;;
56043;SDS011;41912;51.022;3.664;2023-08-07T04:43:42;9.68;;;2.50;;
56043;SDS011;41912;51.022;3.664;2023-08-07T04:46:11;10.45;;;2.72;;
56043;SDS011;41912;51.022;3.664;2023-08-07T04:48:39;6.75;;;2.78;;
56043;SDS011;41912;51.022;3.664;2023-08-07T04:51:05;7.30;;;2.63;;
56043;SDS011;41912;51.022;3.664;2023-08-07T04:53:31;7.45;;;2.38;;
56043;SDS011;41912;51.022;3.664;2023-08-07T04:55:58;11.65;;;2.58;;
56043;SDS011;41912;51.022;3.664;2023-08-07T04:58:24;7.10;;;2.35;;
56043;SDS011;41912;51.022;3.664;2023-08-07T05:00:54;4.50;;;2.47;;
56043;SDS011;41912;51.022;3.664;2023-08-07T05:03:20;6.70;;;2.60;;
56043;SDS011;41912;51.022;3.664;2023-08-07T05:05:46;10.65;;;2.50;;
56043;SDS011;41912;51.022;3.664;2023-08-07T05:08:12;10.10;;;2.22;;
56043;SDS011;41912;51.022;3.664;2023-08-07T05:10:37;8.02;;;2.38;;
56043;SDS011;41912;51.022;3.664;2023-08-07T05:13:03;13.15;;;2.67;;
56043;SDS011;41912;51.022;3.664;2023-08-07T05:15:28;6.13;;;2.70;;
56043;SDS011;41912;51.022;3.664;2023-08-07T05:17:55;7.55;;;2.70;;
56043;SDS011;41912;51.022;3.664;2023-08-07T05:20:21;9.95;;;2.83;;
56043;SDS011;41912;51.022;3.664;2023-08-07T05:22:47;11.50;;;2.85;;
56043;SDS011;41912;51.022;3.664;2023-08-07T05:25:13;6.72;;;3.05;;
56043;SDS011;41912;51.022;3.664;2023-08-07T05:27:41;7.63;;;3.15;;
56043;SDS011;41912;51.022;3.664;2023-08-07T05:30:07;6.60;;;2.83;;
56043;SDS011;41912;51.022;3.664;2023-08-07T05:32:33;8.05;;;3.17;;
56043;SDS011;41912;51.022;3.664;2023-08-07T05:35:02;10.02;;;3.65;;
56043;SDS011;41912;51.022;3.664;2023-08-07T05:37:32;7.93;;;3.03;;
56043;SDS011;41912;51.022;3.664;2023-08-07T05:40:01;7.70;;;3.47;;
56043;SDS011;41912;51.022;3.664;2023-08-07T05:42:27;9.63;;;3.65;;
56043;SDS011;41912;51.022;3.664;2023-08-07T05:44:53;9.35;;;3.20;;
56043;SDS011;41912;51.022;3.664;2023-08-07T05:47:18;9.90;;;3.30;;
56043;SDS011;41912;51.022;3.664;2023-08-07T05:49:44;11.02;;;3.40;;
56043;SDS011;41912;51.022;3.664;2023-08-07T05:52:10;14.98;;;3.88;;
56043;SDS011;41912;51.022;3.664;2023-08-07T05:54:35;14.48;;;4.10;;
56043;SDS011;41912;51.022;3.664;2023-08-07T05:57:01;9.80;;;4.20;;
56043;SDS011;41912;51.022;3.664;2023-08-07T05:59:27;11.25;;;4.70;;
56043;SDS011;41912;51.022;3.664;2023-08-07T06:01:53;21.98;;;4.78;;
56043;SDS011;41912;51.022;3.664;2023-08-07T06:04:19;13.35;;;3.90;;
56043;SDS011;41912;51.022;3.664;2023-08-07T06:06:45;11.05;;;4.00;;
56043;SDS011;41912;51.022;3.664;2023-08-07T06:09:11;16.90;;;4.18;;
56043;SDS011;41912;51.022;3.664;2023-08-07T06:11:37;13.77;;;4.53;;
56043;SDS011;41912;51.022;3.664;2023-08-07T06:14:03;10.13;;;4.10;;
56043;SDS011;41912;51.022;3.664;2023-08-07T06:16:28;12.45;;;4.47;;
56043;SDS011;41912;51.022;3.664;2023-08-07T06:18:54;12.20;;;4.05;;
56043;SDS011;41912;51.022;3.664;2023-08-07T06:21:20;9.35;;;4.22;;
56043;SDS011;41912;51.022;3.664;2023-08-07T06:23:46;10.68;;;4.20;;
56043;SDS011;41912;51.022;3.664;2023-08-07T06:26:12;9.15;;;3.97;;
56043;SDS011;41912;51.022;3.664;2023-08-07T06:28:38;9.18;;;4.70;;
56043;SDS011;41912;51.022;3.664;2023-08-07T06:31:04;15.13;;;4.70;;
56043;SDS011;41912;51.022;3.664;2023-08-07T06:33:35;11.67;;;4.83;;
56043;SDS011;41912;51.022;3.664;2023-08-07T06:36:02;13.68;;;4.90;;
56043;SDS011;41912;51.022;3.664;2023-08-07T06:38:29;16.63;;;5.05;;
56043;SDS011;41912;51.022;3.664;2023-08-07T06:40:55;8.57;;;4.28;;
56043;SDS011;41912;51.022;3.664;2023-08-07T06:43:21;10.68;;;4.80;;
56043;SDS011;41912;51.022;3.664;2023-08-07T06:48:17;10.43;;;4.70;;
56043;SDS011;41912;51.022;3.664;2023-08-07T06:50:43;7.85;;;4.10;;
56043;SDS011;41912;51.022;3.664;2023-08-07T06:53:09;9.57;;;4.63;;
56043;SDS011;41912;51.022;3.664;2023-08-07T06:55:35;11.10;;;4.97;;
56043;SDS011;41912;51.022;3.664;2023-08-07T06:58:00;15.35;;;4.47;;
56043;SDS011;41912;51.022;3.664;2023-08-07T07:00:26;15.55;;;3.90;;
56043;SDS011;41912;51.022;3.664;2023-08-07T07:02:51;8.30;;;4.38;;
56043;SDS011;41912;51.022;3.664;2023-08-07T07:05:18;14.95;;;4.15;;
56043;SDS011;41912;51.022;3.664;2023-08-07T07:07:43;9.25;;;3.85;;
56043;SDS011;41912;51.022;3.664;2023-08-07T07:10:09;9.85;;;4.35;;
56043;SDS011;41912;51.022;3.664;2023-08-07T07:12:35;10.85;;;3.40;;
56043;SDS011;41912;51.022;3.664;2023-08-07T07:15:01;9.07;;;3.72;;
56043;SDS011;41912;51.022;3.664;2023-08-07T07:17:27;10.65;;;3.53;;
56043;SDS011;41912;51.022;3.664;2023-08-07T07:19:53;9.38;;;4.05;;
56043;SDS011;41912;51.022;3.664;2023-08-07T07:22:19;11.23;;;3.70;;
56043;SDS011;41912;51.022;3.664;2023-08-07T07:24:44;7.40;;;3.25;;
56043;SDS011;41912;51.022;3.664;2023-08-07T07:27:10;9.68;;;3.70;;
56043;SDS011;41912;51.022;3.664;2023-08-07T07:29:36;9.90;;;3.53;;
56043;SDS011;41912;51.022;3.664;2023-08-07T07:32:01;7.40;;;2.58;;
56043;SDS011;41912;51.022;3.664;2023-08-07T07:34:27;13.23;;;3.30;;
56043;SDS011;41912;51.022;3.664;2023-08-07T07:36:53;7.30;;;3.08;;
56043;SDS011;41912;51.022;3.664;2023-08-07T07:39:19;8.82;;;3.72;;
56043;SDS011;41912;51.022;3.664;2023-08-07T07:41:45;12.10;;;3.60;;
56043;SDS011;41912;51.022;3.664;2023-08-07T07:44:10;8.68;;;3.33;;
56043;SDS011;41912;51.022;3.664;2023-08-07T07:46:36;6.07;;;2.67;;
56043;SDS011;41912;51.022;3.664;2023-08-07T07:49:02;9.45;;;2.65;;
56043;SDS011;41912;51.022;3.664;2023-08-07T07:51:29;6.90;;;2.40;;
56043;SDS011;41912;51.022;3.664;2023-08-07T07:53:56;7.20;;;2.33;;
56043;SDS011;41912;51.022;3.664;2023-08-07T07:56:22;5.63;;;2.38;;
56043;SDS011;41912;51.022;3.664;2023-08-07T07:58:48;8.48;;;2.55;;
56043;SDS011;41912;51.022;3.664;2023-08-07T08:01:14;5.00;;;2.22;;
56043;SDS011;41912;51.022;3.664;2023-08-07T08:03:39;9.38;;;2.30;;
56043;SDS011;41912;51.022;3.664;2023-08-07T08:06:05;8.80;;;2.67;;
56043;SDS011;41912;51.022;3.664;2023-08-07T08:08:30;7.43;;;2.50;;
56043;SDS011;41912;51.022;3.664;2023-08-07T08:10:56;8.10;;;2.35;;
56043;SDS011;41912;51.022;3.664;2023-08-07T08:13:22;5.43;;;2.33;;
56043;SDS011;41912;51.022;3.664;2023-08-07T08:15:48;4.13;;;1.85;;
56043;SDS011;41912;51.022;3.664;2023-08-07T08:18:14;3.47;;;1.75;;
56043;SDS011;41912;51.022;3.664;2023-08-07T08:20:40;3.10;;;1.98;;
56043;SDS011;41912;51.022;3.664;2023-08-07T08:23:05;4.70;;;1.70;;
56043;SDS011;41912;51.022;3.664;2023-08-07T08:25:31;5.82;;;1.83;;
56043;SDS011;41912;51.022;3.664;2023-08-07T08:27:58;3.28;;;1.50;;
56043;SDS011;41912;51.022;3.664;2023-08-07T08:30:24;5.03;;;2.13;;
56043;SDS011;41912;51.022;3.664;2023-08-07T08:32:50;3.75;;;1.45;;
56043;SDS011;41912;51.022;3.664;2023-08-07T08:35:16;4.63;;;1.65;;
56043;SDS011;41912;51.022;3.664;2023-08-07T08:37:41;4.97;;;1.45;;
56043;SDS011;41912;51.022;3.664;2023-08-07T08:40:08;6.97;;;2.00;;
56043;SDS011;41912;51.022;3.664;2023-08-07T08:42:38;4.70;;;1.60;;
56043;SDS011;41912;51.022;3.664;2023-08-07T08:45:05;5.63;;;1.58;;
56043;SDS011;41912;51.022;3.664;2023-08-07T08:47:33;4.25;;;1.80;;
56043;SDS011;41912;51.022;3.664;2023-08-07T08:50:06;2.40;;;1.40;;
56043;SDS011;41912;51.022;3.664;2023-08-07T08:52:34;4.60;;;1.60;;
56043;SDS011;41912;51.022;3.664;2023-08-07T08:55:02;3.30;;;1.48;;
56043;SDS011;41912;51.022;3.664;2023-08-07T08:57:28;5.05;;;1.80;;
56043;SDS011;41912;51.022;3.664;2023-08-07T08:59:55;4.50;;;1.88;;
56043;SDS011;41912;51.022;3.664;2023-08-07T09:02:22;3.50;;;1.70;;
56043;SDS011;41912;51.022;3.664;2023-08-07T09:04:47;5.65;;;1.80;;
56043;SDS011;41912;51.022;3.664;2023-08-07T09:07:14;4.28;;;1.88;;
56043;SDS011;41912;51.022;3.664;2023-08-07T09:09:41;9.50;;;1.98;;
56043;SDS011;41912;51.022;3.664;2023-08-07T09:12:11;3.65;;;1.80;;
56043;SDS011;41912;51.022;3.664;2023-08-07T09:14:45;6.85;;;1.83;;
56043;SDS011;41912;51.022;3.664;2023-08-07T09:17:14;4.25;;;1.42;;
56043;SDS011;41912;51.022;3.664;2023-08-07T09:19:41;5.68;;;1.75;;
56043;SDS011;41912;51.022;3.664;2023-08-07T09:22:07;5.15;;;1.55;;
56043;SDS011;41912;51.022;3.664;2023-08-07T09:24:33;4.35;;;1.80;;
56043;SDS011;41912;51.022;3.664;2023-08-07T09:26:59;3.85;;;1.65;;
56043;SDS011;41912;51.022;3.664;2023-08-07T09:29:25;6.10;;;1.50;;
56043;SDS011;41912;51.022;3.664;2023-08-07T09:31:53;5.45;;;1.63;;
56043;SDS011;41912;51.022;3.664;2023-08-07T09:34:20;1.90;;;1.40;;
56043;SDS011;41912;51.022;3.664;2023-08-07T09:36:46;4.85;;;1.90;;
56043;SDS011;41912;51.022;3.664;2023-08-07T09:39:11;4.25;;;1.40;;
56043;SDS011;41912;51.022;3.664;2023-08-07T09:41:37;5.75;;;2.25;;
56043;SDS011;41912;51.022;3.664;2023-08-07T09:44:06;3.75;;;2.22;;
56043;SDS011;41912;51.022;3.664;2023-08-07T09:46:45;2.80;;;1.73;;
56043;SDS011;41912;51.022;3.664;2023-08-07T09:49:10;4.32;;;1.45;;
56043;SDS011;41912;51.022;3.664;2023-08-07T09:51:43;8.00;;;1.65;;
56043;SDS011;41912;51.022;3.664;2023-08-07T09:54:12;5.85;;;1.50;;
56043;SDS011;41912;51.022;3.664;2023-08-07T09:56:41;5.82;;;1.75;;
56043;SDS011;41912;51.022;3.664;2023-08-07T09:59:08;3.63;;;1.52;;
56043;SDS011;41912;51.022;3.664;2023-08-07T10:01:36;9.88;;;2.10;;
56043;SDS011;41912;51.022;3.664;2023-08-07T10:04:07;4.20;;;2.03;;
56043;SDS011;41912;51.022;3.664;2023-08-07T10:06:33;2.92;;;1.77;;
56043;SDS011;41912;51.022;3.664;2023-08-07T10:08:59;4.88;;;1.70;;
56043;SDS011;41912;51.022;3.664;2023-08-07T10:11:26;3.85;;;1.70;;
56043;SDS011;41912;51.022;3.664;2023-08-07T10:13:52;6.60;;;2.30;;
56043;SDS011;41912;51.022;3.664;2023-08-07T10:16:19;5.20;;;1.77;;
56043;SDS011;41912;51.022;3.664;2023-08-07T10:18:45;2.55;;;1.38;;
56043;SDS011;41912;51.022;3.664;2023-08-07T10:21:10;4.30;;;1.55;;
56043;SDS011;41912;51.022;3.664;2023-08-07T10:23:37;4.00;;;2.17;;
56043;SDS011;41912;51.022;3.664;2023-08-07T10:26:04;6.30;;;2.05;;
56043;SDS011;41912;51.022;3.664;2023-08-07T10:28:32;3.60;;;1.70;;
56043;SDS011;41912;51.022;3.664;2023-08-07T10:31:06;7.25;;;1.63;;
56043;SDS011;41912;51.022;3.664;2023-08-07T10:33:32;2.33;;;1.30;;
56043;SDS011;41912;51.022;3.664;2023-08-07T10:35:59;4.25;;;1.50;;
56043;SDS011;41912;51.022;3.664;2023-08-07T10:38:25;6.40;;;1.88;;
56043;SDS011;41912;51.022;3.664;2023-08-07T10:41:09;2.35;;;1.40;;
56043;SDS011;41912;51.022;3.664;2023-08-07T10:43:38;3.65;;;1.50;;
56043;SDS011;41912;51.022;3.664;2023-08-07T10:46:06;2.42;;;1.38;;
56043;SDS011;41912;51.022;3.664;2023-08-07T10:48:38;3.30;;;1.42;;
56043;SDS011;41912;51.022;3.664;2023-08-07T10:51:18;4.05;;;1.75;;
56043;SDS011;41912;51.022;3.664;2023-08-07T10:53:47;3.20;;;1.60;;
56043;SDS011;41912;51.022;3.664;2023-08-07T10:56:29;7.45;;;2.20;;
56043;SDS011;41912;51.022;3.664;2023-08-07T10:59:09;4.20;;;1.58;;
56043;SDS011;41912;51.022;3.664;2023-08-07T11:04:12;2.17;;;1.48;;
56043;SDS011;41912;51.022;3.664;2023-08-07T11:06:39;6.05;;;1.70;;
56043;SDS011;41912;51.022;3.664;2023-08-07T11:09:07;3.55;;;1.30;;
56043;SDS011;41912;51.022;3.664;2023-08-07T11:11:35;2.90;;;1.75;;
56043;SDS011;41912;51.022;3.664;2023-08-07T11:14:05;4.35;;;1.40;;
56043;SDS011;41912;51.022;3.664;2023-08-07T11:16:31;2.20;;;1.25;;
56043;SDS011;41912;51.022;3.664;2023-08-07T11:18:58;5.40;;;1.50;;
56043;SDS011;41912;51.022;3.664;2023-08-07T11:21:25;3.65;;;1.50;;
56043;SDS011;41912;51.022;3.664;2023-08-07T11:23:51;2.95;;;1.55;;
56043;SDS011;41912;51.022;3.664;2023-08-07T11:26:16;3.58;;;1.48;;
56043;SDS011;41912;51.022;3.664;2023-08-07T11:28:46;3.40;;;1.55;;
56043;SDS011;41912;51.022;3.664;2023-08-07T11:31:12;6.05;;;1.20;;
56043;SDS011;41912;51.022;3.664;2023-08-07T11:33:39;2.85;;;1.20;;
56043;SDS011;41912;51.022;3.664;2023-08-07T11:36:11;2.22;;;1.05;;
56043;SDS011;41912;51.022;3.664;2023-08-07T11:38:42;2.60;;;1.08;;
56043;SDS011;41912;51.022;3.664;2023-08-07T11:41:09;2.28;;;1.08;;
56043;SDS011;41912;51.022;3.664;2023-08-07T11:43:38;3.97;;;1.20;;
56043;SDS011;41912;51.022;3.664;2023-08-07T11:46:05;3.33;;;1.10;;
56043;SDS011;41912;51.022;3.664;2023-08-07T11:48:33;1.88;;;0.70;;
56043;SDS011;41912;51.022;3.664;2023-08-07T11:51:00;2.47;;;1.13;;
56043;SDS011;41912;51.022;3.664;2023-08-07T11:53:36;1.67;;;0.70;;
56043;SDS011;41912;51.022;3.664;2023-08-07T11:56:13;4.20;;;1.00;;
56043;SDS011;41912;51.022;3.664;2023-08-07T11:58:47;2.20;;;0.90;;
56043;SDS011;41912;51.022;3.664;2023-08-07T12:01:20;2.83;;;0.73;;
56043;SDS011;41912;51.022;3.664;2023-08-07T12:06:31;4.63;;;1.30;;
56043;SDS011;41912;51.022;3.664;2023-08-07T12:08:57;2.88;;;0.70;;
56043;SDS011;41912;51.022;3.664;2023-08-07T12:11:24;2.53;;;0.65;;
56043;SDS011;41912;51.022;3.664;2023-08-07T12:13:50;1.67;;;0.73;;
56043;SDS011;41912;51.022;3.664;2023-08-07T12:16:16;1.70;;;1.00;;
56043;SDS011;41912;51.022;3.664;2023-08-07T12:18:43;2.45;;;1.48;;
56043;SDS011;41912;51.022;3.664;2023-08-07T12:21:10;5.65;;;1.00;;
56043;SDS011;41912;51.022;3.664;2023-08-07T12:23:38;4.28;;;0.90;;
56043;SDS011;41912;51.022;3.664;2023-08-07T12:26:04;4.75;;;0.93;;
56043;SDS011;41912;51.022;3.664;2023-08-07T14:02:06;3.80;;;0.93;;
56043;SDS011;41912;51.022;3.664;2023-08-07T14:04:32;3.33;;;0.82;;
56043;SDS011;41912;51.022;3.664;2023-08-07T14:06:58;2.05;;;1.20;;
56043;SDS011;41912;51.022;3.664;2023-08-07T14:09:24;4.75;;;1.08;;
56043;SDS011;41912;51.022;3.664;2023-08-07T14:11:50;3.35;;;0.90;;
56043;SDS011;41912;51.022;3.664;2023-08-07T14:14:16;1.92;;;0.77;;
56043;SDS011;41912;51.022;3.664;2023-08-07T14:16:42;2.65;;;0.93;;
56043;SDS011;41912;51.022;3.664;2023-08-07T14:19:08;2.30;;;0.80;;
56043;SDS011;41912;51.022;3.664;2023-08-07T14:21:33;1.98;;;1.00;;
56043;SDS011;41912;51.022;3.664;2023-08-07T14:23:59;3.33;;;1.00;;
56043;SDS011;41912;51.022;3.664;2023-08-07T14:26:25;1.40;;;0.93;;
56043;SDS011;41912;51.022;3.664;2023-08-07T14:28:51;2.38;;;0.88;;
56043;SDS011;41912;51.022;3.664;2023-08-07T14:31:16;4.70;;;1.10;;
56043;SDS011;41912;51.022;3.664;2023-08-07T14:33:42;2.30;;;1.02;;
56043;SDS011;41912;51.022;3.664;2023-08-07T14:36:08;1.45;;;0.95;;
56043;SDS011;41912;51.022;3.664;2023-08-07T14:38:33;2.72;;;1.00;;
56043;SDS011;41912;51.022;3.664;2023-08-07T14:40:59;2.10;;;1.17;;
56043;SDS011;41912;51.022;3.664;2023-08-07T14:43:27;3.55;;;1.05;;
56043;SDS011;41912;51.022;3.664;2023-08-07T14:45:54;2.08;;;1.10;;
56043;SDS011;41912;51.022;3.664;2023-08-07T14:48:20;2.20;;;0.95;;
56043;SDS011;41912;51.022;3.664;2023-08-07T14:50:45;2.67;;;1.15;;
56043;SDS011;41912;51.022;3.664;2023-08-07T14:53:11;3.33;;;1.08;;
56043;SDS011;41912;51.022;3.664;2023-08-07T14:55:37;3.92;;;1.10;;
56043;SDS011;41912;51.022;3.664;2023-08-07T14:58:02;1.95;;;1.15;;
56043;SDS011;41912;51.022;3.664;2023-08-07T15:00:28;1.95;;;1.20;;
56043;SDS011;41912;51.022;3.664;2023-08-07T15:02:56;3.20;;;1.20;;
56043;SDS011;41912;51.022;3.664;2023-08-07T15:05:22;2.17;;;1.08;;
56043;SDS011;41912;51.022;3.664;2023-08-07T15:07:48;6.13;;;1.33;;
56043;SDS011;41912;51.022;3.664;2023-08-07T15:10:14;3.28;;;1.52;;
56043;SDS011;41912;51.022;3.664;2023-08-07T15:12:39;2.85;;;1.20;;
56043;SDS011;41912;51.022;3.664;2023-08-07T15:15:05;3.47;;;1.17;;
56043;SDS011;41912;51.022;3.664;2023-08-07T15:17:31;2.60;;;1.05;;
56043;SDS011;41912;51.022;3.664;2023-08-07T15:19:57;2.72;;;1.40;;
56043;SDS011;41912;51.022;3.664;2023-08-07T15:22:23;2.28;;;1.50;;
56043;SDS011;41912;51.022;3.664;2023-08-07T15:24:48;5.68;;;1.10;;
56043;SDS011;41912;51.022;3.664;2023-08-07T15:27:14;4.88;;;1.05;;
56043;SDS011;41912;51.022;3.664;2023-08-07T15:29:40;3.22;;;1.25;;
56043;SDS011;41912;51.022;3.664;2023-08-07T15:32:11;2.15;;;1.15;;
56043;SDS011;41912;51.022;3.664;2023-08-07T15:34:38;3.03;;;1.30;;
56043;SDS011;41912;51.022;3.664;2023-08-07T15:37:04;3.05;;;1.20;;
56043;SDS011;41912;51.022;3.664;2023-08-07T15:39:30;3.05;;;1.00;;
56043;SDS011;41912;51.022;3.664;2023-08-07T15:41:55;7.82;;;1.17;;
56043;SDS011;41912;51.022;3.664;2023-08-07T15:44:21;2.75;;;1.20;;
56043;SDS011;41912;51.022;3.664;2023-08-07T15:46:47;3.28;;;1.25;;
56043;SDS011;41912;51.022;3.664;2023-08-07T15:49:13;3.35;;;1.40;;
56043;SDS011;41912;51.022;3.664;2023-08-07T15:51:38;3.38;;;1.40;;
56043;SDS011;41912;51.022;3.664;2023-08-07T15:54:04;4.97;;;1.10;;
56043;SDS011;41912;51.022;3.664;2023-08-07T15:56:29;5.68;;;1.55;;
56043;SDS011;41912;51.022;3.664;2023-08-07T15:58:55;5.93;;;1.45;;
56043;SDS011;41912;51.022;3.664;2023-08-07T16:01:21;4.95;;;1.30;;
56043;SDS011;41912;51.022;3.664;2023-08-07T16:03:46;2.83;;;1.27;;
56043;SDS011;41912;51.022;3.664;2023-08-07T16:06:12;5.35;;;1.15;;
56043;SDS011;41912;51.022;3.664;2023-08-07T16:08:37;2.65;;;1.17;;
56043;SDS011;41912;51.022;3.664;2023-08-07T16:11:03;3.17;;;1.30;;
56043;SDS011;41912;51.022;3.664;2023-08-07T16:13:29;3.42;;;1.30;;
56043;SDS011;41912;51.022;3.664;2023-08-07T16:15:55;2.78;;;1.10;;
56043;SDS011;41912;51.022;3.664;2023-08-07T16:18:21;2.97;;;1.20;;
56043;SDS011;41912;51.022;3.664;2023-08-07T16:20:47;3.83;;;1.20;;
56043;SDS011;41912;51.022;3.664;2023-08-07T16:23:12;2.35;;;1.00;;
56043;SDS011;41912;51.022;3.664;2023-08-07T16:25:38;2.22;;;1.00;;